createdAt,value
2022-10-04T00:01:53.100Z,88.42
2022-10-04T00:04:26.086Z,88.25
2022-10-04T00:07:00.905Z,88.19
2022-10-04T00:09:36.125Z,88.04
2022-10-04T00:12:05.747Z,87.98
2022-10-04T00:14:36.458Z,87.95
2022-10-04T00:17:10.440Z,87.75
2022-10-04T00:19:41.809Z,87.83
2022-10-04T00:22:17.305Z,87.93
2022-10-04T00:25:18.656Z,88.11
2022-10-04T00:28:28.811Z,87.89
2022-10-04T00:31:27.183Z,87.79
2022-10-04T00:33:57.474Z,87.52
2022-10-04T00:36:35.841Z,87.56
2022-10-04T00:39:15.735Z,87.20
2022-10-04T00:41:55.080Z,87.11
2022-10-04T00:44:25.363Z,86.95
2022-10-04T00:46:53.784Z,86.87
2022-10-04T00:49:23.809Z,86.88
2022-10-04T00:51:55.150Z,86.75
2022-10-04T00:54:31.241Z,87.02
2022-10-04T00:57:02.926Z,86.88
2022-10-04T00:59:34.706Z,86.83
2022-10-04T01:02:06.193Z,86.80
2022-10-04T01:04:40.534Z,86.89
2022-10-04T01:07:09.146Z,86.98
2022-10-04T01:09:42.504Z,86.70
2022-10-04T01:12:17.334Z,86.69
2022-10-04T01:14:52.327Z,86.72
2022-10-04T01:17:20.800Z,86.66
2022-10-04T01:19:53.418Z,86.29
2022-10-04T01:22:35.106Z,87.07
2022-10-04T01:25:02.800Z,86.87
2022-10-04T01:27:42.966Z,86.63
2022-10-04T01:30:13.161Z,86.53
2022-10-04T01:32:41.219Z,86.52
2022-10-04T01:35:10.564Z,86.53
2022-10-04T01:37:40.334Z,86.21
2022-10-04T01:40:10.412Z,86.41
2022-10-04T01:42:44.526Z,86.25
2022-10-04T01:45:18.120Z,86.09
2022-10-04T01:47:50.821Z,86.34
2022-10-04T01:50:22.640Z,86.25
2022-10-04T01:52:55.543Z,86.23
2022-10-04T01:55:26.643Z,86.30
2022-10-04T01:57:58.331Z,86.51
2022-10-04T02:00:26.311Z,86.07
2022-10-04T02:02:56.038Z,86.22
2022-10-04T02:05:29.756Z,86.29
2022-10-04T02:08:03.569Z,86.07
2022-10-04T02:10:33.568Z,86.06
2022-10-04T02:13:02.522Z,86.10
2022-10-04T02:15:30.677Z,86.24
2022-10-04T02:17:58.880Z,85.96
2022-10-04T02:20:27.946Z,85.85
2022-10-04T02:22:59.097Z,86.19
2022-10-04T02:25:28.263Z,86.18
2022-10-04T02:27:56.435Z,86.10
2022-10-04T02:30:24.556Z,85.83
2022-10-04T02:33:00.418Z,86.07
2022-10-04T02:35:31.346Z,86.12
2022-10-04T02:38:06.672Z,86.36
2022-10-04T02:40:40.635Z,85.98
2022-10-04T02:43:15.652Z,86.15
2022-10-04T02:45:48.061Z,85.84
2022-10-04T02:48:27.468Z,85.92
2022-10-04T02:50:57.785Z,86.09
2022-10-04T02:53:27.936Z,86.04
2022-10-04T02:55:57.228Z,85.94
2022-10-04T02:58:26.222Z,86.11
2022-10-04T03:00:57.814Z,85.90
2022-10-04T03:03:27.349Z,85.74
2022-10-04T03:05:59.189Z,86.08
2022-10-04T03:08:27.499Z,85.88
2022-10-04T03:10:56.777Z,86.30
2022-10-04T03:13:24.558Z,85.97
2022-10-04T03:15:52.368Z,85.78
2022-10-04T03:18:20.516Z,86.15
2022-10-04T03:20:48.730Z,86.46
2022-10-04T03:23:17.854Z,86.40
2022-10-04T03:25:50.932Z,86.03
2022-10-04T03:28:20.225Z,86.49
2022-10-04T03:30:49.018Z,85.90
2022-10-04T03:33:18.781Z,86.13
2022-10-04T03:35:48.476Z,86.21
2022-10-04T03:38:17.712Z,86.68
2022-10-04T03:40:51.553Z,86.66
2022-10-04T03:43:25.252Z,87.00
2022-10-04T03:45:53.457Z,86.41
2022-10-04T03:48:28.767Z,86.32
2022-10-04T03:50:56.484Z,87.03
2022-10-04T03:53:31.587Z,86.81
2022-10-04T03:56:04.207Z,86.35
2022-10-04T03:58:34.707Z,86.39
2022-10-04T04:01:16.794Z,86.20
2022-10-04T04:04:02.527Z,86.07
2022-10-04T04:06:38.296Z,86.23
2022-10-04T04:09:06.572Z,86.29
2022-10-04T04:11:34.424Z,86.16
2022-10-04T04:14:05.517Z,86.19
2022-10-04T04:16:33.703Z,86.78
2022-10-04T04:19:04.166Z,86.29
2022-10-04T04:21:32.666Z,86.53
2022-10-04T04:24:03.240Z,86.52
2022-10-04T04:26:36.594Z,86.46
2022-10-04T04:29:10.143Z,86.56
2022-10-04T04:31:42.805Z,86.54
2022-10-04T04:34:20.476Z,86.58
2022-10-04T04:36:48.152Z,86.28
2022-10-04T04:39:37.997Z,86.75
2022-10-04T04:42:11.213Z,86.55
2022-10-04T04:44:47.840Z,86.69
2022-10-04T04:47:33.069Z,86.50
2022-10-04T04:50:06.626Z,86.52
2022-10-04T04:52:35.881Z,86.49
2022-10-04T04:55:05.786Z,87.33
2022-10-04T04:57:34.437Z,87.06
2022-10-04T05:00:03.699Z,87.54
2022-10-04T05:02:35.396Z,87.96
2022-10-04T05:05:22.169Z,87.37
2022-10-04T05:07:50.639Z,87.47
2022-10-04T05:10:36.149Z,86.93
2022-10-04T05:13:04.553Z,86.97
2022-10-04T05:15:35.247Z,86.88
2022-10-04T05:18:03.461Z,87.11
2022-10-04T05:20:34.239Z,87.89
2022-10-04T05:23:01.911Z,86.89
2022-10-04T05:25:33.425Z,87.12
2022-10-04T05:28:01.531Z,89.64
2022-10-04T05:30:46.279Z,87.55
2022-10-04T05:33:15.912Z,87.37
2022-10-04T05:35:51.387Z,87.33
2022-10-04T05:38:27.695Z,87.47
2022-10-04T05:41:00.785Z,88.00
2022-10-04T05:43:36.607Z,88.95
2022-10-04T05:46:19.371Z,88.63
2022-10-04T05:48:48.413Z,88.80
2022-10-04T05:51:19.994Z,88.35
2022-10-04T05:53:49.804Z,88.07
2022-10-04T05:56:50.985Z,87.51
2022-10-04T05:59:35.137Z,87.28
2022-10-04T06:02:11.059Z,87.76
2022-10-04T06:04:47.712Z,87.93
2022-10-04T06:07:22.441Z,87.98
2022-10-04T06:10:04.792Z,88.36
2022-10-04T06:12:44.577Z,87.90
2022-10-04T06:15:41.234Z,87.64
2022-10-04T06:18:22.676Z,87.50
2022-10-04T06:21:22.961Z,87.54
2022-10-04T06:23:56.077Z,87.68
2022-10-04T06:26:25.827Z,87.88
2022-10-04T06:28:57.283Z,88.83
2022-10-04T06:31:57.146Z,88.54
2022-10-04T06:34:58.935Z,88.77
2022-10-04T06:37:42.574Z,89.37
2022-10-04T06:40:37.056Z,89.04
2022-10-04T06:43:21.672Z,90.49
2022-10-04T06:46:06.640Z,90.28
2022-10-04T06:48:56.432Z,91.72
2022-10-04T06:51:38.164Z,93.14
2022-10-04T06:54:18.654Z,92.71
2022-10-04T06:56:58.196Z,92.26
2022-10-04T06:59:49.445Z,93.68
2022-10-04T07:02:21.607Z,95.05
2022-10-04T07:05:09.151Z,96.39
2022-10-04T07:07:38.873Z,95.59
2022-10-04T07:10:21.681Z,94.46
2022-10-04T07:12:53.558Z,97.04
2022-10-04T07:15:26.042Z,96.58
2022-10-04T07:17:54.652Z,95.69
2022-10-04T07:20:25.353Z,95.29
2022-10-04T07:22:58.282Z,96.34
2022-10-04T07:25:30.504Z,97.54
2022-10-04T07:28:21.667Z,98.60
2022-10-04T07:30:54.383Z,100.00
2022-10-04T07:33:24.398Z,99.42
2022-10-04T07:35:55.351Z,99.83
2022-10-04T07:38:27.924Z,99.00
2022-10-04T07:41:08.395Z,100.00
2022-10-04T07:43:41.826Z,99.57
2022-10-04T07:46:22.434Z,100.00
2022-10-04T07:48:50.160Z,100.00
2022-10-04T07:51:25.240Z,100.00
2022-10-04T07:53:56.710Z,100.00
2022-10-04T07:56:28.900Z,100.00
2022-10-04T07:59:04.262Z,100.00
2022-10-04T08:01:37.116Z,99.98
2022-10-04T08:04:18.306Z,98.88
2022-10-04T08:06:56.288Z,98.33
2022-10-04T08:09:35.980Z,98.45
2022-10-04T08:12:09.740Z,98.26
2022-10-04T08:14:52.356Z,98.31
2022-10-04T08:17:28.319Z,98.28
2022-10-04T08:20:04.764Z,98.50
2022-10-04T08:22:41.987Z,98.71
2022-10-04T08:25:17.489Z,97.88
2022-10-04T08:28:12.632Z,98.29
2022-10-04T08:30:49.028Z,98.10
2022-10-04T08:33:25.578Z,98.36
2022-10-04T08:36:00.895Z,98.12
2022-10-04T08:38:42.892Z,99.24
2022-10-04T08:41:37.632Z,99.58
2022-10-04T08:44:30.166Z,100.00
2022-10-04T08:47:35.114Z,99.07
2022-10-04T08:50:19.129Z,99.88
2022-10-04T08:53:25.944Z,100.00
2022-10-04T08:56:06.284Z,99.44
2022-10-04T08:58:56.452Z,99.01
2022-10-04T09:01:40.175Z,99.74
2022-10-04T09:04:40.537Z,97.02
2022-10-04T09:07:25.241Z,96.72
2022-10-04T09:10:06.596Z,95.91
2022-10-04T09:12:49.268Z,96.21
2022-10-04T09:15:52.380Z,97.25
2022-10-04T09:18:52.921Z,96.84
2022-10-04T09:21:28.709Z,95.25
2022-10-04T09:24:42.385Z,95.11
2022-10-04T09:27:36.865Z,95.82
2022-10-04T09:30:16.148Z,95.47
2022-10-04T09:33:05.884Z,95.28
2022-10-04T09:36:08.725Z,94.40
2022-10-04T09:39:28.982Z,95.40
2022-10-04T09:42:05.899Z,95.11
2022-10-04T09:44:54.568Z,95.18
2022-10-04T09:47:31.109Z,94.99
2022-10-04T09:50:20.540Z,94.35
2022-10-04T09:52:56.297Z,94.04
2022-10-04T09:55:42.331Z,94.79
2022-10-04T09:58:45.272Z,96.54
2022-10-04T10:01:17.765Z,97.14
2022-10-04T10:04:18.997Z,96.31
2022-10-04T10:06:56.188Z,96.57
2022-10-04T10:09:50.169Z,95.78
2022-10-04T10:12:49.781Z,96.53
2022-10-04T10:15:25.596Z,95.72
2022-10-04T10:17:58.528Z,94.64
2022-10-04T10:20:54.732Z,94.90
2022-10-04T10:23:39.687Z,94.03
2022-10-04T10:26:41.648Z,94.80
2022-10-04T10:29:23.940Z,93.82
2022-10-04T10:32:01.227Z,95.05
2022-10-04T10:35:03.941Z,95.66
2022-10-04T10:37:43.009Z,95.04
2022-10-04T10:40:24.813Z,94.59
2022-10-04T10:43:04.584Z,94.75
2022-10-04T10:45:49.036Z,93.77
2022-10-04T10:48:19.227Z,93.98
2022-10-04T10:50:59.681Z,94.34
2022-10-04T10:53:41.350Z,93.58
2022-10-04T10:56:31.429Z,92.87
2022-10-04T10:59:37.935Z,93.65
2022-10-04T11:02:49.283Z,93.54
2022-10-04T11:05:34.428Z,93.06
2022-10-04T11:08:06.401Z,93.62
2022-10-04T11:11:04.133Z,92.83
2022-10-04T11:14:03.325Z,93.07
2022-10-04T11:16:47.503Z,91.97
2022-10-04T11:20:04.920Z,91.52
2022-10-04T11:23:08.845Z,91.79
2022-10-04T11:25:57.975Z,92.06
2022-10-04T11:28:36.107Z,91.63
2022-10-04T11:31:32.099Z,90.44
2022-10-04T11:34:26.273Z,90.12
2022-10-04T11:37:06.451Z,90.83
2022-10-04T11:39:55.243Z,90.26
2022-10-04T11:42:34.360Z,88.85
2022-10-04T11:45:21.157Z,87.66
2022-10-04T11:47:59.314Z,88.04
2022-10-04T11:50:39.679Z,88.81
2022-10-04T11:53:27.169Z,88.73
2022-10-04T11:56:21.371Z,86.62
2022-10-04T11:59:09.864Z,86.40
2022-10-04T12:02:02.732Z,85.91
2022-10-04T12:04:53.915Z,88.96
2022-10-04T12:07:39.653Z,86.97
2022-10-04T12:10:20.993Z,87.19
2022-10-04T12:13:15.902Z,86.88
2022-10-04T12:16:05.723Z,87.43
2022-10-04T12:19:09.088Z,87.46
2022-10-04T12:21:52.300Z,87.15
2022-10-04T12:24:33.389Z,84.74
2022-10-04T12:27:26.809Z,85.06
2022-10-04T12:30:15.769Z,84.02
2022-10-04T12:32:57.736Z,84.42
2022-10-04T12:35:34.457Z,84.87
2022-10-04T12:38:24.608Z,85.17
2022-10-04T12:40:59.084Z,84.84
2022-10-04T12:43:30.762Z,83.76
2022-10-04T12:46:08.363Z,83.60
2022-10-04T12:48:50.554Z,85.54
2022-10-04T12:51:29.953Z,83.95
2022-10-04T12:54:02.595Z,82.71
2022-10-04T12:56:45.648Z,81.99
2022-10-04T12:59:34.608Z,81.85
2022-10-04T13:02:12.963Z,82.57
2022-10-04T13:04:46.807Z,83.96
2022-10-04T13:07:25.655Z,83.18
2022-10-04T13:10:23.503Z,80.53
2022-10-04T13:13:17.823Z,80.61
2022-10-04T13:18:44.552Z,81.10
2022-10-04T13:21:17.696Z,80.02
2022-10-04T13:23:59.044Z,79.33
2022-10-04T13:26:39.336Z,79.97
2022-10-04T13:29:16.177Z,79.76
2022-10-04T13:31:49.050Z,81.62
2022-10-04T13:34:27.304Z,80.76
2022-10-04T13:37:07.151Z,81.50
2022-10-04T13:39:45.284Z,80.54
2022-10-04T13:42:47.893Z,80.29
2022-10-04T13:45:26.566Z,80.82
2022-10-04T13:48:10.479Z,82.09
2022-10-04T13:50:52.758Z,81.10
2022-10-04T13:53:42.790Z,79.94
2022-10-04T13:56:37.777Z,80.17
2022-10-04T13:59:10.770Z,79.38
2022-10-04T14:02:00.413Z,79.14
2022-10-04T14:04:48.780Z,78.57
2022-10-04T14:07:30.970Z,78.89
2022-10-04T14:10:13.873Z,80.05
2022-10-04T14:12:54.228Z,80.43
2022-10-04T14:15:58.547Z,79.64
2022-10-04T14:19:14.057Z,81.29
2022-10-04T14:21:55.393Z,80.32
2022-10-04T14:24:51.553Z,80.27
2022-10-04T14:27:52.879Z,79.96
2022-10-04T14:30:23.709Z,79.79
2022-10-04T14:33:36.255Z,80.24
2022-10-04T14:36:23.293Z,79.75
2022-10-04T14:39:32.780Z,79.30
2022-10-04T14:42:17.496Z,79.72
2022-10-04T14:45:05.689Z,79.26
2022-10-04T14:47:53.972Z,79.73
2022-10-04T14:50:25.784Z,79.92
2022-10-04T14:53:08.652Z,79.55
2022-10-04T14:55:59.334Z,79.68
2022-10-04T14:58:40.765Z,79.98
2022-10-04T15:01:20.180Z,79.82
2022-10-04T15:04:00.833Z,79.87
2022-10-04T15:06:37.831Z,79.45
2022-10-04T15:09:19.237Z,79.44
2022-10-04T15:12:21.686Z,79.31
2022-10-04T15:14:45.115Z,78.41
2022-10-04T15:17:26.245Z,78.80
2022-10-04T15:20:09.585Z,78.66
2022-10-04T15:22:43.004Z,78.05
2022-10-04T15:25:40.187Z,78.13
2022-10-04T15:28:16.759Z,77.89
2022-10-04T15:30:52.177Z,78.28
2022-10-04T15:33:35.033Z,77.94
2022-10-04T15:36:48.192Z,78.23
2022-10-04T15:39:34.488Z,78.08
2022-10-04T15:42:09.819Z,78.53
2022-10-04T15:44:58.150Z,78.40
2022-10-04T15:47:29.049Z,78.26
2022-10-04T15:50:05.752Z,77.97
2022-10-04T15:52:52.777Z,78.33
2022-10-04T15:55:23.803Z,78.46
2022-10-04T15:58:09.322Z,77.68
2022-10-04T16:00:48.957Z,78.23
2022-10-04T16:03:23.835Z,78.75
2022-10-04T16:06:00.457Z,79.09
2022-10-04T16:08:42.708Z,79.02
2022-10-04T16:11:27.040Z,79.47
2022-10-04T16:14:09.625Z,79.50
2022-10-04T16:16:59.881Z,79.68
2022-10-04T16:19:43.465Z,78.83
2022-10-04T16:22:15.762Z,79.26
2022-10-04T16:24:49.786Z,79.33
2022-10-04T16:27:44.191Z,79.30
2022-10-04T16:30:27.130Z,79.24
2022-10-04T16:33:13.855Z,79.38
2022-10-04T16:35:43.045Z,78.86
2022-10-04T16:38:21.442Z,78.48
2022-10-04T16:41:01.969Z,79.21
2022-10-04T16:43:33.099Z,79.23
2022-10-04T16:46:11.791Z,79.10
2022-10-04T16:48:48.537Z,79.80
2022-10-04T16:51:36.185Z,80.20
2022-10-04T16:54:14.811Z,80.20
2022-10-04T16:57:12.113Z,80.10
2022-10-04T16:59:51.120Z,79.16
2022-10-04T17:02:52.804Z,80.02
2022-10-04T17:05:25.424Z,80.85
2022-10-04T17:08:15.999Z,80.83
2022-10-04T17:11:08.407Z,80.88
2022-10-04T17:13:39.413Z,81.00
2022-10-04T17:16:13.669Z,80.93
2022-10-04T17:18:47.476Z,81.24
2022-10-04T17:21:26.844Z,80.97
2022-10-04T17:24:08.776Z,81.27
2022-10-04T17:26:44.006Z,80.80
2022-10-04T17:29:24.137Z,80.51
2022-10-04T17:31:58.373Z,80.35
2022-10-04T17:34:36.069Z,80.34
2022-10-04T17:37:16.532Z,80.08
2022-10-04T17:39:48.255Z,80.44
2022-10-04T17:42:29.214Z,80.46
2022-10-04T17:45:28.587Z,80.34
2022-10-04T17:48:19.321Z,80.84
2022-10-04T17:51:11.355Z,80.23
2022-10-04T17:53:59.554Z,80.30
2022-10-04T17:56:32.007Z,80.70
2022-10-04T17:59:00.017Z,81.09
2022-10-04T18:01:30.279Z,80.81
2022-10-04T18:04:08.908Z,80.50
2022-10-04T18:06:39.271Z,80.90
2022-10-04T18:09:13.570Z,80.39
2022-10-04T18:11:47.155Z,80.63
2022-10-04T18:14:41.873Z,80.70
2022-10-04T18:17:11.437Z,80.45
2022-10-04T18:19:44.480Z,80.82
2022-10-04T18:22:15.261Z,80.52
2022-10-04T18:24:43.815Z,80.37
2022-10-04T18:27:20.989Z,80.99
2022-10-04T18:30:00.200Z,81.64
2022-10-04T18:32:35.409Z,80.83
2022-10-04T18:35:26.857Z,80.93
2022-10-04T18:37:56.669Z,81.24
2022-10-04T18:40:25.784Z,82.05
2022-10-04T18:42:55.566Z,81.84
2022-10-04T18:45:26.258Z,82.07
2022-10-04T18:47:54.431Z,81.71
2022-10-04T18:50:34.352Z,81.80
2022-10-04T18:53:14.729Z,81.08
2022-10-04T18:55:47.306Z,81.14
2022-10-04T18:58:43.627Z,80.61
2022-10-04T19:01:46.662Z,80.96
2022-10-04T19:04:20.296Z,81.05
2022-10-04T19:06:49.811Z,81.00
2022-10-04T19:09:22.477Z,81.63
2022-10-04T19:11:53.896Z,82.09
2022-10-04T19:14:28.039Z,82.53
2022-10-04T19:17:01.371Z,81.88
2022-10-04T19:19:40.933Z,82.05
2022-10-04T19:22:19.672Z,82.29
2022-10-04T19:25:13.452Z,81.44
2022-10-04T19:27:45.202Z,81.31
2022-10-04T19:30:17.515Z,81.11
2022-10-04T19:33:11.561Z,81.06
2022-10-04T19:35:50.377Z,80.73
2022-10-04T19:38:34.468Z,81.11
2022-10-04T19:41:07.213Z,80.88
2022-10-04T19:43:42.116Z,80.81
2022-10-04T19:46:16.883Z,81.03
2022-10-04T19:48:49.531Z,80.83
2022-10-04T19:51:22.741Z,80.96
2022-10-04T19:53:57.670Z,81.18
2022-10-04T19:56:29.344Z,80.75
2022-10-04T19:59:03.931Z,80.95
2022-10-04T20:01:31.969Z,80.50
2022-10-04T20:04:17.310Z,81.49
2022-10-04T20:06:49.292Z,82.04
2022-10-04T20:09:26.762Z,82.24
2022-10-04T20:11:54.721Z,82.81
2022-10-04T20:15:28.723Z,82.85
2022-10-04T20:17:57.958Z,83.45
2022-10-04T20:21:04.988Z,82.69
2022-10-04T20:23:56.630Z,83.07
2022-10-04T20:27:04.324Z,83.31
2022-10-04T20:30:04.078Z,83.28
2022-10-04T20:33:03.549Z,83.09
2022-10-04T20:36:05.838Z,82.44
2022-10-04T20:39:00.660Z,82.86
2022-10-04T20:42:19.889Z,82.21
2022-10-04T20:44:56.085Z,82.76
2022-10-04T20:47:46.123Z,82.36
2022-10-04T20:50:20.298Z,83.26
2022-10-04T20:52:49.574Z,83.39
2022-10-04T20:55:21.524Z,82.79
2022-10-04T20:57:51.506Z,82.53
2022-10-04T21:00:21.522Z,82.53
2022-10-04T21:02:49.847Z,83.12
2022-10-04T21:05:24.641Z,82.74
2022-10-04T21:08:22.118Z,82.68
2022-10-04T21:11:04.097Z,82.77
2022-10-04T21:13:44.193Z,83.25
2022-10-04T21:16:11.931Z,83.29
2022-10-04T21:18:39.615Z,83.07
2022-10-04T21:21:08.363Z,83.95
2022-10-04T21:23:36.400Z,83.42
2022-10-04T21:26:20.645Z,83.39
2022-10-04T21:28:50.183Z,82.83
2022-10-04T21:31:18.031Z,83.00
2022-10-04T21:33:45.789Z,83.00
2022-10-04T21:36:13.623Z,83.03
2022-10-04T21:38:41.572Z,83.31
2022-10-04T21:41:09.280Z,83.17
2022-10-04T21:43:37.117Z,83.32
2022-10-04T21:46:08.054Z,83.32
2022-10-04T21:48:35.801Z,82.92
2022-10-04T21:51:06.400Z,83.04
2022-10-04T21:53:34.040Z,82.93
2022-10-04T21:56:03.239Z,82.47
2022-10-04T21:58:30.880Z,83.12
2022-10-04T22:00:58.600Z,82.67
2022-10-04T22:03:27.610Z,82.70
2022-10-04T22:05:55.262Z,82.72
2022-10-04T22:08:22.949Z,82.56
2022-10-04T22:10:54.239Z,81.98
2022-10-04T22:13:25.309Z,81.97
2022-10-04T22:15:53.079Z,81.79
2022-10-04T22:18:20.734Z,81.95
2022-10-04T22:20:49.715Z,81.65
2022-10-04T22:23:19.616Z,81.97
2022-10-04T22:25:47.637Z,82.28
2022-10-04T22:28:19.977Z,81.90
2022-10-04T22:30:49.382Z,81.64
2022-10-04T22:33:35.328Z,81.99
2022-10-04T22:36:15.169Z,81.72
2022-10-04T22:38:43.767Z,81.93
2022-10-04T22:41:12.773Z,81.74
2022-10-04T22:43:40.418Z,81.76
2022-10-04T22:46:14.427Z,82.23
2022-10-04T22:48:42.447Z,82.13
2022-10-04T22:51:12.109Z,82.27
2022-10-04T22:53:42.925Z,82.06
2022-10-04T22:56:10.706Z,81.88
2022-10-04T22:58:38.575Z,81.76
2022-10-04T23:01:12.689Z,81.70
2022-10-04T23:03:42.965Z,81.73
2022-10-04T23:06:14.322Z,81.75
2022-10-04T23:08:42.934Z,82.27
2022-10-04T23:11:11.558Z,81.74
2022-10-04T23:13:39.817Z,82.48
2022-10-04T23:16:14.946Z,82.36
2022-10-04T23:18:42.698Z,82.15
2022-10-04T23:21:20.826Z,81.90
2022-10-04T23:23:48.861Z,82.70
2022-10-04T23:26:22.204Z,82.92
2022-10-04T23:28:49.940Z,82.49
2022-10-04T23:31:21.280Z,82.24
2022-10-04T23:33:49.016Z,82.47
2022-10-04T23:36:18.168Z,82.21
2022-10-04T23:38:49.986Z,81.98
2022-10-04T23:41:18.604Z,81.78
2022-10-04T23:43:46.377Z,81.91
2022-10-04T23:46:16.370Z,81.91
2022-10-04T23:48:44.504Z,81.75
2022-10-04T23:51:14.009Z,81.57
2022-10-04T23:53:43.496Z,81.66
2022-10-04T23:56:18.474Z,81.52
2022-10-04T23:58:46.261Z,81.55
